Time,TemperatureF,DewpointF,PressureIn,WindDirection,WindDirectionDegrees,WindSpeedMPH,WindSpeedGustMPH,Humidity,HourlyPrecipIn,Conditions,Clouds,dailyrainin,SolarRadiationWatts/m^2,SoftwareType,DateUTC
2013-09-12 00:01:00,69.5,65.1,29.89,WSW,249,2.0,2.0,86,0.00,,,0.00,0,Wunderground v.1.15,2013-09-12 04:01:00,
2013-09-12 00:05:00,69.4,65.0,29.89,WSW,245,1.0,2.0,86,0.00,,,0.00,0,Wunderground v.1.15,2013-09-12 04:05:00,
2013-09-12 00:10:00,69.2,64.8,29.89,WSW,245,0.0,0.0,86,0.00,,,0.00,0,Wunderground v.1.15,2013-09-12 04:10:00,
2013-09-12 00:16:00,69.1,64.7,29.89,WSW,245,1.0,1.0,86,0.00,,,0.00,0,Wunderground v.1.15,2013-09-12 04:16:00,
2013-09-12 00:21:00,68.9,64.9,29.88,WSW,245,1.0,1.0,87,0.00,,,0.00,0,Wunderground v.1.15,2013-09-12 04:21:00,
2013-09-12 00:26:00,68.7,64.7,29.88,WSW,245,1.0,2.0,87,0.00,,,0.00,0,Wunderground v.1.15,2013-09-12 04:26:00,
2013-09-12 00:36:00,68.3,64.3,29.88,WSW,245,0.0,1.0,87,0.00,,,0.00,0,Wunderground v.1.15,2013-09-12 04:36:00,
2013-09-12 00:46:00,67.9,64.2,29.87,WSW,237,0.0,0.0,88,0.00,,,0.00,0,Wunderground v.1.15,2013-09-12 04:46:00,
2013-09-12 00:56:00,67.0,63.3,29.87,WSW,237,0.0,1.0,88,0.00,,,0.00,0,Wunderground v.1.15,2013-09-12 04:56:00,
2013-09-12 01:01:00,66.7,63.4,29.87,WSW,245,1.0,1.0,89,0.00,,,0.00,0,Wunderground v.1.15,2013-09-12 05:01:00,
2013-09-12 01:11:00,66.6,63.6,29.87,WSW,238,1.0,2.0,90,0.00,,,0.00,0,Wunderground v.1.15,2013-09-12 05:11:00,
2013-09-12 01:20:00,66.6,63.6,29.86,WSW,238,2.0,2.0,90,0.00,,,0.00,0,Wunderground v.1.15,2013-09-12 05:20:00,
2013-09-12 01:26:00,66.7,64.0,29.86,WSW,237,2.0,2.0,91,0.00,,,0.00,0,Wunderground v.1.15,2013-09-12 05:26:00,
2013-09-12 01:31:00,66.7,64.0,29.86,WSW,237,2.0,3.0,91,0.00,,,0.00,0,Wunderground v.1.15,2013-09-12 05:31:00,
2013-09-12 01:41:00,66.6,63.6,29.86,SW,232,2.0,2.0,90,0.00,,,0.00,0,Wunderground v.1.15,2013-09-12 05:41:00,
2013-09-12 01:46:00,66.7,64.0,29.86,SW,235,2.0,2.0,91,0.00,,,0.00,0,Wunderground v.1.15,2013-09-12 05:46:00,
2013-09-12 01:56:00,66.7,64.0,29.85,SSW,213,2.0,2.0,91,0.00,,,0.00,0,Wunderground v.1.15,2013-09-12 05:56:00,
2013-09-12 02:06:00,66.7,64.0,29.85,WSW,239,1.0,1.0,91,0.00,,,0.00,0,Wunderground v.1.15,2013-09-12 06:06:00,
2013-09-12 02:11:00,66.8,64.1,29.85,WSW,239,1.0,1.0,91,0.00,,,0.00,0,Wunderground v.1.15,2013-09-12 06:11:00,
2013-09-12 02:21:00,66.7,63.7,29.85,WSW,238,1.0,1.0,90,0.00,,,0.00,0,Wunderground v.1.15,2013-09-12 06:21:00,
2013-09-12 02:31:00,66.1,63.1,29.85,WSW,238,0.0,0.0,90,0.00,,,0.00,0,Wunderground v.1.15,2013-09-12 06:31:00,
2013-09-12 02:41:00,65.6,62.9,29.85,SSW,204,0.0,0.0,91,0.00,,,0.00,0,Wunderground v.1.15,2013-09-12 06:41:00,
2013-09-12 02:51:00,65.2,62.5,29.85,SSW,204,0.0,0.0,91,0.00,,,0.00,0,Wunderground v.1.15,2013-09-12 06:51:00,
2013-09-12 03:00:00,64.8,62.1,29.84,NNW,348,0.0,0.0,91,0.00,,,0.00,0,Wunderground v.1.15,2013-09-12 07:00:00,
2013-09-12 03:06:00,64.7,62.3,29.84,NNW,348,0.0,0.0,92,0.00,,,0.00,0,Wunderground v.1.15,2013-09-12 07:06:00,
2013-09-12 03:11:00,64.5,62.1,29.84,NNW,348,0.0,0.0,92,0.00,,,0.00,0,Wunderground v.1.15,2013-09-12 07:11:00,
2013-09-12 03:21:00,64.3,61.9,29.84,NNW,348,0.0,0.0,92,0.00,,,0.00,0,Wunderground v.1.15,2013-09-12 07:21:00,
2013-09-12 03:26:00,64.1,61.7,29.84,NNW,348,0.0,1.0,92,0.00,,,0.00,0,Wunderground v.1.15,2013-09-12 07:26:00,
2013-09-12 03:35:00,64.3,62.2,29.84,WSW,248,1.0,2.0,93,0.00,,,0.00,0,Wunderground v.1.15,2013-09-12 07:35:00,
2013-09-12 03:41:00,64.5,62.4,29.84,WSW,240,1.0,1.0,93,0.00,,,0.00,0,Wunderground v.1.15,2013-09-12 07:41:00,
2013-09-12 03:46:00,64.6,62.5,29.84,WSW,243,1.0,1.0,93,0.00,,,0.00,0,Wunderground v.1.15,2013-09-12 07:46:00,
2013-09-12 03:56:00,64.4,62.3,29.84,WSW,243,1.0,1.0,93,0.00,,,0.00,0,Wunderground v.1.15,2013-09-12 07:56:00,
2013-09-12 04:01:00,64.4,62.3,29.84,WSW,243,0.0,0.0,93,0.00,,,0.00,0,Wunderground v.1.15,2013-09-12 08:01:00,
2013-09-12 04:11:00,63.8,61.7,29.84,WSW,243,0.0,0.0,93,0.00,,,0.00,0,Wunderground v.1.15,2013-09-12 08:11:00,
2013-09-12 04:16:00,64.1,62.3,29.84,WSW,246,0.0,1.0,94,0.00,,,0.00,0,Wunderground v.1.15,2013-09-12 08:16:00,
2013-09-12 04:26:00,64.7,62.9,29.84,West,267,1.0,3.0,94,0.00,,,0.00,0,Wunderground v.1.15,2013-09-12 08:26:00,
2013-09-12 04:36:00,64.9,62.8,29.84,West,265,3.0,3.0,93,0.00,,,0.00,0,Wunderground v.1.15,2013-09-12 08:36:00,
2013-09-12 04:46:00,65.0,62.9,29.84,WNW,287,2.0,2.0,93,0.00,,,0.00,0,Wunderground v.1.15,2013-09-12 08:46:00,
2013-09-12 04:51:00,65.0,62.9,29.84,West,272,3.0,3.0,93,0.00,,,0.00,0,Wunderground v.1.15,2013-09-12 08:51:00,
2013-09-12 05:01:00,65.0,62.9,29.84,West,281,4.0,4.0,93,0.00,,,0.00,0,Wunderground v.1.15,2013-09-12 09:01:00,
2013-09-12 05:11:00,65.0,62.9,29.84,West,277,4.0,4.0,93,0.00,,,0.00,0,Wunderground v.1.15,2013-09-12 09:11:00,
2013-09-12 05:16:00,65.1,63.0,29.84,West,278,4.0,4.0,93,0.00,,,0.00,0,Wunderground v.1.15,2013-09-12 09:16:00,
2013-09-12 05:25:00,65.0,62.9,29.84,West,280,4.0,5.0,93,0.00,,,0.00,0,Wunderground v.1.15,2013-09-12 09:25:00,
2013-09-12 05:31:00,64.9,62.8,29.84,West,271,4.0,4.0,93,0.00,,,0.00,0,Wunderground v.1.15,2013-09-12 09:31:00,
2013-09-12 05:41:00,64.8,62.7,29.84,WNW,287,4.0,6.0,93,0.00,,,0.00,0,Wunderground v.1.15,2013-09-12 09:41:00,
2013-09-12 05:46:00,64.7,62.6,29.84,WNW,288,4.0,6.0,93,0.00,,,0.00,0,Wunderground v.1.15,2013-09-12 09:46:00,
2013-09-12 05:56:00,64.3,62.2,29.85,West,281,5.0,5.0,93,0.00,,,0.00,0,Wunderground v.1.15,2013-09-12 09:56:00,
2013-09-12 06:01:00,64.1,62.0,29.85,WNW,284,4.0,6.0,93,0.00,,,0.00,0,Wunderground v.1.15,2013-09-12 10:01:00,
2013-09-12 06:11:00,64.1,62.0,29.85,West,279,5.0,5.0,93,0.00,,,0.00,0,Wunderground v.1.15,2013-09-12 10:11:00,
2013-09-12 06:21:00,64.1,62.3,29.85,West,280,5.0,5.0,94,0.00,,,0.00,0,Wunderground v.1.15,2013-09-12 10:21:00,
2013-09-12 06:26:00,64.0,61.9,29.85,NW,307,6.0,10.0,93,0.00,,,0.00,0,Wunderground v.1.15,2013-09-12 10:26:00,
2013-09-12 06:31:00,63.9,61.8,29.85,WNW,293,5.0,5.0,93,0.00,,,0.00,0,Wunderground v.1.15,2013-09-12 10:31:00,
2013-09-12 06:41:00,63.9,61.8,29.86,WNW,298,3.0,4.0,93,0.00,,,0.00,0,Wunderground v.1.15,2013-09-12 10:41:00,
2013-09-12 06:51:00,63.8,61.7,29.86,WNW,287,3.0,4.0,93,0.00,,,0.00,0,Wunderground v.1.15,2013-09-12 10:51:00,
2013-09-12 06:56:00,63.8,61.7,29.86,WNW,283,3.0,4.0,93,0.00,,,0.00,0,Wunderground v.1.15,2013-09-12 10:56:00,
2013-09-12 07:05:00,63.4,61.0,29.87,WNW,286,3.0,3.0,92,0.00,,,0.00,0,Wunderground v.1.15,2013-09-12 11:05:00,
2013-09-12 07:11:00,63.2,60.8,29.87,West,276,3.0,4.0,92,0.00,,,0.00,0,Wunderground v.1.15,2013-09-12 11:11:00,
2013-09-12 07:16:00,63.0,60.6,29.87,West,281,3.0,4.0,92,0.00,,,0.00,0,Wunderground v.1.15,2013-09-12 11:16:00,
2013-09-12 07:21:00,62.9,60.5,29.87,WNW,284,4.0,4.0,92,0.00,,,0.00,0,Wunderground v.1.15,2013-09-12 11:21:00,
2013-09-12 07:31:00,62.9,60.5,29.88,WNW,294,5.0,5.0,92,0.00,,,0.00,12,Wunderground v.1.15,2013-09-12 11:31:00,
2013-09-12 07:41:00,63.0,60.6,29.88,WNW,288,5.0,7.0,92,0.00,,,0.00,30,Wunderground v.1.15,2013-09-12 11:41:00,
2013-09-12 07:46:00,63.0,60.6,29.87,WNW,296,5.0,7.0,92,0.00,,,0.00,30,Wunderground v.1.15,2013-09-12 11:46:00,
2013-09-12 07:56:00,63.0,60.6,29.87,WNW,300,5.0,5.0,92,0.00,,,0.00,62,Wunderground v.1.15,2013-09-12 11:56:00,
2013-09-12 08:01:00,63.0,60.6,29.87,WNW,298,5.0,5.0,92,0.00,,,0.00,69,Wunderground v.1.15,2013-09-12 12:01:00,
2013-09-12 08:11:00,63.0,60.6,29.88,WNW,285,4.0,4.0,92,0.00,,,0.00,102,Wunderground v.1.15,2013-09-12 12:11:00,
2013-09-12 08:16:00,63.2,61.1,29.87,WNW,294,4.0,5.0,93,0.00,,,0.00,109,Wunderground v.1.15,2013-09-12 12:16:00,
2013-09-12 08:26:00,63.5,61.4,29.88,NW,313,6.0,6.0,93,0.00,,,0.00,158,Wunderground v.1.15,2013-09-12 12:26:00,
2013-09-12 08:31:00,63.7,61.6,29.88,WNW,298,6.0,6.0,93,0.00,,,0.00,176,Wunderground v.1.15,2013-09-12 12:31:00,
2013-09-12 08:40:00,64.0,61.9,29.88,NW,313,7.0,8.0,93,0.00,,,0.00,218,Wunderground v.1.15,2013-09-12 12:40:00,
2013-09-12 08:46:00,64.2,61.8,29.88,WNW,288,7.0,9.0,92,0.00,,,0.00,239,Wunderground v.1.15,2013-09-12 12:46:00,
2013-09-12 08:51:00,64.3,61.9,29.88,WNW,288,7.0,10.0,92,0.00,,,0.00,257,Wunderground v.1.15,2013-09-12 12:51:00,
2013-09-12 09:01:00,64.8,62.1,29.88,NW,306,7.0,8.0,91,0.00,,,0.00,281,Wunderground v.1.15,2013-09-12 13:01:00,
2013-09-12 09:11:00,65.1,61.8,29.88,WNW,300,9.0,9.0,89,0.00,,,0.00,309,Wunderground v.1.15,2013-09-12 13:11:00,
2013-09-12 09:21:00,65.6,62.3,29.88,WNW,285,6.0,9.0,89,0.00,,,0.00,338,Wunderground v.1.15,2013-09-12 13:21:00,
2013-09-12 09:30:00,65.8,61.8,29.88,NW,304,8.0,8.0,87,0.00,,,0.00,366,Wunderground v.1.15,2013-09-12 13:30:00,
2013-09-12 09:36:00,66.0,61.7,29.88,NW,309,8.0,8.0,86,0.00,,,0.00,378,Wunderground v.1.15,2013-09-12 13:36:00,
2013-09-12 09:46:00,66.4,61.8,29.88,WNW,296,9.0,11.0,85,0.00,,,0.00,411,Wunderground v.1.15,2013-09-12 13:46:00,
2013-09-12 09:51:00,66.7,62.0,29.88,NW,318,9.0,10.0,85,0.00,,,0.00,427,Wunderground v.1.15,2013-09-12 13:51:00,
2013-09-12 10:01:00,67.1,61.4,29.88,WNW,292,10.0,10.0,82,0.00,,,0.00,457,Wunderground v.1.15,2013-09-12 14:01:00,
2013-09-12 10:11:00,67.5,61.5,29.88,NW,307,10.0,10.0,81,0.00,,,0.00,483,Wunderground v.1.15,2013-09-12 14:11:00,
2013-09-12 10:21:00,68.0,61.2,29.88,WNW,298,11.0,11.0,79,0.00,,,0.00,512,Wunderground v.1.15,2013-09-12 14:21:00,
2013-09-12 10:30:00,68.4,60.2,29.88,WNW,294,11.0,15.0,75,0.00,,,0.00,538,Wunderground v.1.15,2013-09-12 14:30:00,
2013-09-12 10:36:00,68.5,60.6,29.88,WNW,288,11.0,15.0,76,0.00,,,0.00,547,Wunderground v.1.15,2013-09-12 14:36:00,
2013-09-12 10:46:00,69.2,60.2,29.88,WNW,300,10.0,11.0,73,0.00,,,0.00,571,Wunderground v.1.15,2013-09-12 14:46:00,
2013-09-12 10:56:00,69.7,60.7,29.88,NW,307,10.0,12.0,73,0.00,,,0.00,596,Wunderground v.1.15,2013-09-12 14:56:00,
2013-09-12 11:06:00,69.9,59.7,29.88,NW,324,10.0,13.0,70,0.00,,,0.00,622,Wunderground v.1.15,2013-09-12 15:06:00,
2013-09-12 11:15:00,70.3,59.6,29.88,NNW,333,12.0,12.0,69,0.00,,,0.00,647,Wunderground v.1.15,2013-09-12 15:15:00,
2013-09-12 11:21:00,70.5,59.8,29.88,NW,308,10.0,10.0,69,0.00,,,0.00,657,Wunderground v.1.15,2013-09-12 15:21:00,
2013-09-12 11:31:00,70.9,59.4,29.88,NNW,333,9.0,9.0,67,0.00,,,0.00,675,Wunderground v.1.15,2013-09-12 15:31:00,
2013-09-12 11:36:00,71.2,59.7,29.88,NW,318,8.0,9.0,67,0.00,,,0.00,686,Wunderground v.1.15,2013-09-12 15:36:00,
2013-09-12 11:46:00,71.4,59.4,29.88,WNW,299,8.0,8.0,66,0.00,,,0.00,700,Wunderground v.1.15,2013-09-12 15:46:00,
2013-09-12 11:51:00,71.6,59.6,29.88,WNW,295,8.0,9.0,66,0.00,,,0.00,708,Wunderground v.1.15,2013-09-12 15:51:00,
2013-09-12 12:01:00,71.9,59.1,29.88,NW,316,10.0,10.0,64,0.00,,,0.00,724,Wunderground v.1.15,2013-09-12 16:01:00,
2013-09-12 12:11:00,72.2,58.5,29.88,NW,307,10.0,12.0,62,0.00,,,0.00,740,Wunderground v.1.15,2013-09-12 16:11:00,
2013-09-12 12:16:00,72.2,58.0,29.88,WNW,296,11.0,13.0,61,0.00,,,0.00,747,Wunderground v.1.15,2013-09-12 16:16:00,
2013-09-12 12:26:00,72.6,57.9,29.88,NNW,338,11.0,11.0,60,0.00,,,0.00,758,Wunderground v.1.15,2013-09-12 16:26:00,
2013-09-12 12:36:00,72.7,58.5,29.88,NNW,336,8.0,10.0,61,0.00,,,0.00,765,Wunderground v.1.15,2013-09-12 16:36:00,
2013-09-12 12:46:00,72.9,59.1,29.88,NNW,328,11.0,15.0,62,0.00,,,0.00,775,Wunderground v.1.15,2013-09-12 16:46:00,
2013-09-12 12:56:00,72.9,59.1,29.88,WNW,296,12.0,14.0,62,0.00,,,0.00,793,Wunderground v.1.15,2013-09-12 16:56:00,
2013-09-12 13:01:00,72.8,57.2,29.88,WSW,257,11.0,11.0,58,0.00,,,0.00,835,Wunderground v.1.15,2013-09-12 17:01:00,
2013-09-12 13:11:00,72.7,58.0,29.88,NW,313,11.0,11.0,60,0.00,,,0.00,204,Wunderground v.1.15,2013-09-12 17:11:00,
2013-09-12 13:16:00,72.7,59.8,29.88,North,355,10.0,11.0,64,0.00,,,0.00,868,Wunderground v.1.15,2013-09-12 17:16:00,
2013-09-12 13:26:00,72.3,58.5,29.88,WNW,292,10.0,14.0,62,0.00,,,0.00,204,Wunderground v.1.15,2013-09-12 17:26:00,
2013-09-12 13:31:00,72.7,59.4,29.87,WNW,300,9.0,9.0,63,0.00,,,0.00,271,Wunderground v.1.15,2013-09-12 17:31:00,
2013-09-12 13:41:00,73.5,57.8,29.87,NW,319,12.0,12.0,58,0.00,,,0.00,935,Wunderground v.1.15,2013-09-12 17:41:00,
2013-09-12 13:51:00,73.5,57.8,29.87,NW,319,12.0,13.0,58,0.00,,,0.00,830,Wunderground v.1.15,2013-09-12 17:51:00,
2013-09-12 14:01:00,74.1,57.4,29.86,NNW,344,13.0,13.0,56,0.00,,,0.00,824,Wunderground v.1.15,2013-09-12 18:01:00,
2013-09-12 14:11:00,74.7,59.4,29.86,NNW,342,10.0,10.0,59,0.00,,,0.00,932,Wunderground v.1.15,2013-09-12 18:11:00,
2013-09-12 14:21:00,74.9,57.1,29.85,WNW,285,12.0,12.0,54,0.00,,,0.00,807,Wunderground v.1.15,2013-09-12 18:21:00,
2013-09-12 14:26:00,74.8,58.5,29.85,WNW,293,11.0,16.0,57,0.00,,,0.00,846,Wunderground v.1.15,2013-09-12 18:26:00,
2013-09-12 14:36:00,74.9,56.6,29.86,WNW,298,12.0,12.0,53,0.00,,,0.00,221,Wunderground v.1.15,2013-09-12 18:36:00,
2013-09-12 14:41:00,74.4,56.7,29.85,WNW,297,12.0,16.0,54,0.00,,,0.00,234,Wunderground v.1.15,2013-09-12 18:41:00,
2013-09-12 14:51:00,74.1,56.9,29.86,WNW,302,14.0,16.0,55,0.00,,,0.00,301,Wunderground v.1.15,2013-09-12 18:51:00,
2013-09-12 14:56:00,73.7,58.0,29.85,WNW,296,13.0,16.0,58,0.00,,,0.00,304,Wunderground v.1.15,2013-09-12 18:56:00,
2013-09-12 15:01:00,73.3,59.0,29.85,NW,321,12.0,12.0,61,0.00,,,0.00,819,Wunderground v.1.15,2013-09-12 19:01:00,
2013-09-12 15:11:00,73.5,58.8,29.85,NNW,338,10.0,16.0,60,0.00,,,0.00,497,Wunderground v.1.15,2013-09-12 19:11:00,
2013-09-12 15:16:00,73.5,57.8,29.85,NW,306,11.0,16.0,58,0.00,,,0.00,171,Wunderground v.1.15,2013-09-12 19:16:00,
2013-09-12 15:26:00,72.0,55.9,29.85,NW,315,12.0,16.0,57,0.00,,,0.00,146,Wunderground v.1.15,2013-09-12 19:26:00,
2013-09-12 15:36:00,71.3,56.2,29.85,NW,313,10.0,12.0,59,0.00,,,0.00,223,Wunderground v.1.15,2013-09-12 19:36:00,
2013-09-12 15:46:00,71.7,57.1,29.85,NW,308,12.0,16.0,60,0.00,,,0.00,297,Wunderground v.1.15,2013-09-12 19:46:00,
2013-09-12 15:56:00,71.5,56.4,29.84,WNW,302,13.0,17.0,59,0.00,,,0.00,220,Wunderground v.1.15,2013-09-12 19:56:00,
2013-09-12 16:06:00,72.2,57.5,29.85,NW,315,12.0,12.0,60,0.00,,,0.00,383,Wunderground v.1.15,2013-09-12 20:06:00,
2013-09-12 16:16:00,71.8,55.7,29.84,NW,311,12.0,13.0,57,0.00,,,0.00,283,Wunderground v.1.15,2013-09-12 20:16:00,
2013-09-12 16:26:00,71.5,55.5,29.84,NNW,331,13.0,14.0,57,0.00,,,0.00,144,Wunderground v.1.15,2013-09-12 20:26:00,
2013-09-12 16:35:00,69.7,56.5,29.84,NW,313,15.0,20.0,63,0.00,,,0.00,241,Wunderground v.1.15,2013-09-12 20:35:00,
2013-09-12 16:41:00,68.9,56.6,29.85,NNW,343,15.0,15.0,65,0.00,,,0.00,260,Wunderground v.1.15,2013-09-12 20:41:00,
2013-09-12 16:46:00,68.9,55.3,29.84,NNW,338,14.0,15.0,62,0.00,,,0.00,237,Wunderground v.1.15,2013-09-12 20:46:00,
2013-09-12 16:56:00,68.8,55.7,29.84,WNW,296,11.0,13.0,63,0.00,,,0.00,313,Wunderground v.1.15,2013-09-12 20:56:00,
2013-09-12 17:01:00,69.0,56.3,29.85,North,5,12.0,13.0,64,0.00,,,0.00,431,Wunderground v.1.15,2013-09-12 21:01:00,
2013-09-12 17:11:00,68.6,55.1,29.85,North,355,12.0,12.0,62,0.00,,,0.00,241,Wunderground v.1.15,2013-09-12 21:11:00,
2013-09-12 17:16:00,68.5,54.5,29.86,NNW,342,14.0,14.0,61,0.00,,,0.00,216,Wunderground v.1.15,2013-09-12 21:16:00,
2013-09-12 17:26:00,68.6,54.6,29.86,NW,310,14.0,15.0,61,0.00,,,0.00,490,Wunderground v.1.15,2013-09-12 21:26:00,
2013-09-12 17:36:00,68.2,53.8,29.86,North,355,13.0,14.0,60,0.00,,,0.00,422,Wunderground v.1.15,2013-09-12 21:36:00,
2013-09-12 17:46:00,67.7,53.8,29.86,WNW,303,12.0,16.0,61,0.00,,,0.00,394,Wunderground v.1.15,2013-09-12 21:46:00,
2013-09-12 17:56:00,66.9,53.0,29.88,NW,310,13.0,16.0,61,0.00,,,0.00,357,Wunderground v.1.15,2013-09-12 21:56:00,
2013-09-12 18:06:00,66.1,52.3,29.88,NW,322,13.0,18.0,61,0.00,,,0.00,116,Wunderground v.1.15,2013-09-12 22:06:00,
2013-09-12 18:16:00,66.1,51.8,29.89,NNW,344,13.0,14.0,60,0.00,,,0.00,144,Wunderground v.1.15,2013-09-12 22:16:00,
2013-09-12 18:26:00,65.4,52.0,29.90,NW,317,12.0,13.0,62,0.00,,,0.00,56,Wunderground v.1.15,2013-09-12 22:26:00,
2013-09-12 18:35:00,64.7,51.8,29.90,NNW,340,10.0,11.0,63,0.00,,,0.00,70,Wunderground v.1.15,2013-09-12 22:35:00,
2013-09-12 18:41:00,64.5,51.2,29.90,NW,319,10.0,10.0,62,0.00,,,0.00,76,Wunderground v.1.15,2013-09-12 22:41:00,
2013-09-12 18:51:00,64.1,50.8,29.90,NNW,334,11.0,14.0,62,0.00,,,0.00,77,Wunderground v.1.15,2013-09-12 22:51:00,
2013-09-12 18:56:00,64.2,50.5,29.91,NNW,341,12.0,14.0,61,0.00,,,0.00,167,Wunderground v.1.15,2013-09-12 22:56:00,
2013-09-12 19:06:00,64.1,50.4,29.91,NNW,336,11.0,12.0,61,0.00,,,0.00,100,Wunderground v.1.15,2013-09-12 23:06:00,
2013-09-12 19:16:00,63.2,50.0,29.91,NW,309,11.0,14.0,62,0.00,,,0.00,23,Wunderground v.1.15,2013-09-12 23:16:00,
2013-09-12 19:21:00,62.8,50.0,29.91,NW,306,11.0,11.0,63,0.00,,,0.00,19,Wunderground v.1.15,2013-09-12 23:21:00,
2013-09-12 19:26:00,62.4,49.6,29.91,NNW,335,11.0,11.0,63,0.00,,,0.00,21,Wunderground v.1.15,2013-09-12 23:26:00,
2013-09-12 19:36:00,61.8,49.5,29.91,NNW,343,10.0,11.0,64,0.00,,,0.00,11,Wunderground v.1.15,2013-09-12 23:36:00,
2013-09-12 19:41:00,61.6,49.7,29.92,NW,313,10.0,10.0,65,0.00,,,0.00,5,Wunderground v.1.15,2013-09-12 23:41:00,
2013-09-12 19:51:00,61.3,49.8,29.92,NW,322,8.0,10.0,66,0.00,,,0.00,0,Wunderground v.1.15,2013-09-12 23:51:00,
2013-09-12 19:56:00,61.2,49.7,29.92,NW,326,8.0,10.0,66,0.00,,,0.00,0,Wunderground v.1.15,2013-09-12 23:56:00,
2013-09-12 20:06:00,60.9,49.9,29.92,NNW,329,9.0,12.0,67,0.00,,,0.00,0,Wunderground v.1.15,2013-09-13 00:06:00,
2013-09-12 20:16:00,60.2,49.2,29.92,NW,317,10.0,11.0,67,0.00,,,0.00,0,Wunderground v.1.15,2013-09-13 00:16:00,
2013-09-12 20:26:00,60.0,48.6,29.93,NW,319,11.0,11.0,66,0.00,,,0.00,0,Wunderground v.1.15,2013-09-13 00:26:00,
2013-09-12 20:36:00,60.2,48.0,29.93,North,350,12.0,15.0,64,0.00,,,0.00,0,Wunderground v.1.15,2013-09-13 00:36:00,
2013-09-12 20:41:00,60.1,47.9,29.94,NW,316,12.0,18.0,64,0.00,,,0.00,0,Wunderground v.1.15,2013-09-13 00:41:00,
2013-09-12 20:46:00,60.0,47.8,29.94,NW,310,12.0,18.0,64,0.00,,,0.00,0,Wunderground v.1.15,2013-09-13 00:46:00,
2013-09-12 20:56:00,59.9,47.7,29.94,NW,309,11.0,14.0,64,0.00,,,0.00,0,Wunderground v.1.15,2013-09-13 00:56:00,
2013-09-12 21:01:00,59.7,47.5,29.95,NW,324,11.0,13.0,64,0.00,,,0.00,0,Wunderground v.1.15,2013-09-13 01:01:00,
2013-09-12 21:11:00,59.0,47.2,29.95,WNW,295,10.0,11.0,65,0.00,,,0.00,0,Wunderground v.1.15,2013-09-13 01:11:00,
2013-09-12 21:16:00,58.7,47.4,29.95,WNW,292,10.0,11.0,66,0.00,,,0.00,0,Wunderground v.1.15,2013-09-13 01:16:00,
2013-09-12 21:26:00,58.2,47.7,29.95,NW,311,10.0,10.0,68,0.00,,,0.00,0,Wunderground v.1.15,2013-09-13 01:26:00,
2013-09-12 21:31:00,58.1,47.6,29.95,WNW,298,9.0,9.0,68,0.00,,,0.00,0,Wunderground v.1.15,2013-09-13 01:31:00,
2013-09-12 21:41:00,57.8,48.1,29.95,NW,310,6.0,6.0,70,0.00,,,0.00,0,Wunderground v.1.15,2013-09-13 01:41:00,
2013-09-12 21:46:00,57.7,48.0,29.95,NW,313,7.0,7.0,70,0.00,,,0.00,0,Wunderground v.1.15,2013-09-13 01:46:00,
2013-09-12 21:51:00,57.8,48.1,29.95,NW,322,8.0,11.0,70,0.00,,,0.00,0,Wunderground v.1.15,2013-09-13 01:51:00,
2013-09-12 22:01:00,57.9,48.2,29.95,NW,321,8.0,8.0,70,0.00,,,0.00,0,Wunderground v.1.15,2013-09-13 02:01:00,
2013-09-12 22:06:00,57.9,47.8,29.95,NW,323,8.0,8.0,69,0.00,,,0.00,0,Wunderground v.1.15,2013-09-13 02:06:00,
2013-09-12 22:16:00,57.8,47.3,29.95,NNW,330,9.0,13.0,68,0.00,,,0.00,0,Wunderground v.1.15,2013-09-13 02:16:00,
2013-09-12 22:26:00,57.8,46.9,29.95,NW,313,9.0,9.0,67,0.00,,,0.00,0,Wunderground v.1.15,2013-09-13 02:26:00,
2013-09-12 22:36:00,57.8,46.9,29.95,NW,317,9.0,11.0,67,0.00,,,0.00,0,Wunderground v.1.15,2013-09-13 02:36:00,
2013-09-12 22:46:00,57.9,46.6,29.95,NNW,338,12.0,12.0,66,0.00,,,0.00,0,Wunderground v.1.15,2013-09-13 02:46:00,
2013-09-12 22:51:00,57.8,46.5,29.95,NW,316,12.0,12.0,66,0.00,,,0.00,0,Wunderground v.1.15,2013-09-13 02:51:00,
2013-09-12 23:01:00,57.7,46.0,29.95,NNW,330,11.0,11.0,65,0.00,,,0.00,0,Wunderground v.1.15,2013-09-13 03:01:00,
2013-09-12 23:06:00,57.6,45.5,29.95,NNW,337,11.0,11.0,64,0.00,,,0.00,0,Wunderground v.1.15,2013-09-13 03:06:00,
2013-09-12 23:16:00,57.5,45.4,29.95,NW,304,13.0,13.0,64,0.00,,,0.00,0,Wunderground v.1.15,2013-09-13 03:16:00,
2013-09-12 23:26:00,57.3,44.8,29.96,NW,307,12.0,18.0,63,0.00,,,0.00,0,Wunderground v.1.15,2013-09-13 03:26:00,
2013-09-12 23:31:00,57.2,44.7,29.95,NNW,333,12.0,13.0,63,0.00,,,0.00,0,Wunderground v.1.15,2013-09-13 03:31:00,
2013-09-12 23:41:00,57.0,44.9,29.96,NNW,336,14.0,14.0,64,0.00,,,0.00,0,Wunderground v.1.15,2013-09-13 03:41:00,
2013-09-12 23:46:00,56.9,45.3,29.97,NNW,328,13.0,14.0,65,0.00,,,0.00,0,Wunderground v.1.15,2013-09-13 03:46:00,
2013-09-12 23:56:00,56.7,45.5,29.97,NNW,336,12.0,15.0,66,0.00,,,0.00,0,Wunderground v.1.15,2013-09-13 03:56:00,